WetterOnline ( https://www.wetteronline.de )

Wetter aktuell Ostingersleben

Aktuelles Wetter: Magdeburg (85m)

6-stündlich | Neueste Meldungen
Ortszeit Temperatur Wetter
Mo, 16.05. 14:00 26.1° C wolkig
Mo, 16.05. 8:00 14.5° C wolkenlos
Mo, 16.05. 2:00 11.4° C leicht bewölkt
So, 15.05. 20:00 21.1° C fast wolkenlos
So, 15.05. 14:00 20.8° C wolkenlos
So, 15.05. 8:00 12.6° C wolkenlos
So, 15.05. 2:00 8.8° C fast wolkenlos
Sa, 14.05. 20:00 18.8° C fast wolkenlos
Ortszeit Temperatur Wetter
Mo, 16.05. 16:30 25.9° C bewölkt
Mo, 16.05. 16:20 25.9° C bewölkt
Mo, 16.05. 16:10 26.0° C bedeckt
Mo, 16.05. 16:00 26.4° C bewölkt
Mo, 16.05. 15:50 26.4° C bewölkt
Mo, 16.05. 15:40 25.9° C bedeckt
Mo, 16.05. 15:30 26.3° C bewölkt
Mo, 16.05. 15:00 26.2° C bewölkt
Mo, 16.05. 14:30 26.4° C wolkig
Mo, 16.05. 14:00 26.1° C wolkig
Mo, 16.05. 13:30 25.4° C fast wolkenlos
Ortszeit Relative Feuchte Sichtweite
Mo, 16.05. 14:00 35% 55 km
Mo, 16.05. 8:00 60% >70 km
Mo, 16.05. 2:00 72% 55 km
So, 15.05. 20:00 38% 45 km
So, 15.05. 14:00 37% 65 km
So, 15.05. 8:00 64% 35 km
So, 15.05. 2:00 83% 40 km
Sa, 14.05. 20:00 48% 40 km
Ortszeit Relative Feuchte Sichtweite
Mo, 16.05. 16:30 38% 45 km
Mo, 16.05. 16:20 38% -
Mo, 16.05. 16:10 39% -
Mo, 16.05. 16:00 37% 45 km
Mo, 16.05. 15:50 37% -
Mo, 16.05. 15:40 37% -
Mo, 16.05. 15:30 37% 45 km
Mo, 16.05. 15:00 34% >70 km
Mo, 16.05. 14:30 35% 30 km
Mo, 16.05. 14:00 35% 55 km
Mo, 16.05. 13:30 35% 50 km
Ortszeit Niederschlagsmenge Niederschlagsart
Mo, 16.05. 14:00 0.0 l/m2 in 6 Std. -
Mo, 16.05. 8:00 0.0 l/m2 in 12 Std. -
Mo, 16.05. 2:00 0.0 l/m2 in 6 Std. -
So, 15.05. 20:00 0.0 l/m2 in 12 Std. -
So, 15.05. 14:00 0.0 l/m2 in 6 Std. -
So, 15.05. 8:00 0.0 l/m2 in 12 Std. -
So, 15.05. 2:00 0.0 l/m2 in 6 Std. -
Sa, 14.05. 20:00 0.0 l/m2 in 12 Std. -
Ortszeit Niederschlagsmenge Niederschlagsart
Mo, 16.05. 16:30 0.0 l/m2 in 1 Std. -
Mo, 16.05. 16:20 keine Meldung -
Mo, 16.05. 16:10 keine Meldung -
Mo, 16.05. 16:00 0.0 l/m2 in 1 Std. -
Mo, 16.05. 15:50 keine Meldung -
Mo, 16.05. 15:40 keine Meldung -
Mo, 16.05. 15:30 0.0 l/m2 in 1 Std. -
Mo, 16.05. 15:00 0.0 l/m2 in 1 Std. -
Mo, 16.05. 14:30 0.0 l/m2 in 1 Std. -
Mo, 16.05. 14:00 0.0 l/m2 in 1 Std. -
Mo, 16.05. 13:30 0.0 l/m2 in 1 Std. -
Ortszeit Stärke Spitze Richtung
km/h Bft. km/h Grad Sektor
Mo, 16.05. 14:00 11 2 32 140° SO
Mo, 16.05. 8:00 7 2 18 110° O
Mo, 16.05. 2:00 4 1 14 50° NO
So, 15.05. 20:00 6 1 19 70° O
So, 15.05. 14:00 6 1 19 350° N
So, 15.05. 8:00 6 1 9 10° N
So, 15.05. 2:00 4 1 14 310° NW
Sa, 14.05. 20:00 4 1 36 320° NW
Ortszeit Stärke Spitze Richtung
km/h Bft. km/h Grad Sektor
Mo, 16.05. 16:30 7 2 18 160° S
Mo, 16.05. 16:20 7 2 - 160° S
Mo, 16.05. 16:10 9 2 - 160° S
Mo, 16.05. 16:00 9 2 24 150° SO
Mo, 16.05. 15:50 9 2 - 150° SO
Mo, 16.05. 15:40 11 2 - 150° SO
Mo, 16.05. 15:30 11 2 24 150° SO
Mo, 16.05. 15:00 9 2 24 160° S
Mo, 16.05. 14:30 11 2 25 140° SO
Mo, 16.05. 14:00 11 2 25 140° SO
Mo, 16.05. 13:30 9 2 22 120° SO
Ortszeit Untergrenze Bedeckung Gattung
total tief tief mittel hoch
Mo, 16.05. 14:00 5700 m 7/8 3/8 - - -
Mo, 16.05. 8:00 - 0/8 0/8 - - -
Mo, 16.05. 2:00 10500 m 6/8 0/8 - - -
So, 15.05. 20:00 8400 m 1/8 0/8 - - -
So, 15.05. 14:00 - 0/8 0/8 - - -
So, 15.05. 8:00 - 0/8 0/8 - - -
So, 15.05. 2:00 5700 m 1/8 1/8 - - -
Sa, 14.05. 20:00 1800 m 1/8 1/8 - - -
Ortszeit Bedeckungsgrad in Achtel und Wolkenuntergrenze
Mo, 16.05. 16:30 5(2700m) 8(3900m)
Mo, 16.05. 16:20 5(2700m) 8(3900m)
Mo, 16.05. 16:10 8
Mo, 16.05. 16:00 7(2400m) 8(4800m)
Mo, 16.05. 15:50 7(2400m) 8(4800m)
Mo, 16.05. 15:40 8
Mo, 16.05. 15:30 7(2400m) 8(4800m)
Mo, 16.05. 15:00 7(2400m) 7(5400m) 7(6300m)
Mo, 16.05. 14:30 3(2400m) 8(5700m)
Mo, 16.05. 14:00 1(5700m) 3(6600m) 7(7500m)
Mo, 16.05. 13:30 1(7500m)
Ortszeit Luftdruck NN (hPa) Tendenz (hPa in 3 Std.)
Mo, 16.05. 14:00 1016 - 1,2
Mo, 16.05. 8:00 1019 - 0,2
Mo, 16.05. 2:00 1020 + 0,2
So, 15.05. 20:00 1019 - 0,9
So, 15.05. 14:00 1022 - 1,0
So, 15.05. 8:00 1023 + 1,1
So, 15.05. 2:00 1022 + 0,5
Sa, 14.05. 20:00 1020 + 0,2
Ortszeit Luftdruck NN (hPa) Tendenz (hPa in 3 Std.)
Mo, 16.05. 16:30 1015 - 1,5
Mo, 16.05. 16:20 1015 keine Meldung
Mo, 16.05. 16:10 1015 keine Meldung
Mo, 16.05. 16:00 1015 - 1,6
Mo, 16.05. 15:50 1015 keine Meldung
Mo, 16.05. 15:40 1016 keine Meldung
Mo, 16.05. 15:30 1016 - 1,6
Mo, 16.05. 15:00 1016 - 1,5
Mo, 16.05. 14:30 1016 - 1,5
Mo, 16.05. 14:00 1016 - 1,2
Mo, 16.05. 13:30 1017 - 1,3
Ortszeit Schneehöhe (cm)
Mo, 16.05. 14:00 0
Mo, 16.05. 8:00 0
Mo, 16.05. 2:00 0
So, 15.05. 20:00 0
So, 15.05. 14:00 0
So, 15.05. 8:00 0
So, 15.05. 2:00 0
Sa, 14.05. 20:00 0
Ortszeit Schneehöhe (cm)
Mo, 16.05. 16:30 0
Mo, 16.05. 16:20 0
Mo, 16.05. 16:10 0
Mo, 16.05. 16:00 0
Mo, 16.05. 15:50 0
Mo, 16.05. 15:40 0
Mo, 16.05. 15:30 0
Mo, 16.05. 15:00 0
Mo, 16.05. 14:30 0
Mo, 16.05. 14:00 0
Mo, 16.05. 13:30 0
Link zu dieser Seite / Seite empfehlen

Das Wetter in ...